FW75 KNUW-KNUW
Flight info
| Callsign | FW75 |
|---|---|
| Flight time | 2h 46m |
| Altitude | 1000 |
| Route | VFR OPR |
| Aircraft | H60/M-DOV/C |
Departure
| Time | 2026-05-03 21:40 |
|---|---|
| Airport | Whidbey Island Naval Air Station (Ault Field) (KNUW) |
Arrival
| Time | 2026-05-04 00:26 |
|---|---|
| Airport | Whidbey Island Naval Air Station (Ault Field) (KNUW) |
| Time | Latitude | Longitude | Altitude | Speed | Heading |
|---|---|---|---|---|---|
| 2026-05-03 21:13 | 48.34503 | -122.66732 | 21 ft | 0 kts | 55° |
| 2026-05-03 21:38 | 48.34505 | -122.66728 | 21 ft | 2 kts | 55° |
| 2026-05-03 21:38 | 48.34515 | -122.66679 | 21 ft | 8 kts | 127° |
| 2026-05-03 21:38 | 48.34457 | -122.66616 | 21 ft | 10 kts | 131° |
| 2026-05-03 21:38 | 48.34460 | -122.66521 | 21 ft | 10 kts | 72° |
| 2026-05-03 21:39 | 48.34485 | -122.66407 | 21 ft | 13 kts | 70° |
| 2026-05-03 21:39 | 48.34508 | -122.66307 | 21 ft | 0 kts | 72° |
| 2026-05-03 21:39 | 48.34508 | -122.66303 | 25 ft | 2 kts | 75° |
| 2026-05-03 21:39 | 48.34506 | -122.66304 | 44 ft | 9 kts | 265° |
| 2026-05-03 21:40 | 48.34443 | -122.66634 | 313 ft | 59 kts | 246° |
| 2026-05-03 21:40 | 48.33903 | -122.67072 | 659 ft | 120 kts | 193° |
| 2026-05-03 21:40 | 48.32940 | -122.67352 | 846 ft | 159 kts | 193° |
| 2026-05-03 21:40 | 48.31788 | -122.67682 | 1066 ft | 161 kts | 194° |
| 2026-05-03 21:41 | 48.30717 | -122.68007 | 1169 ft | 159 kts | 194° |
| 2026-05-03 21:41 | 48.29652 | -122.68341 | 1184 ft | 155 kts | 193° |
| 2026-05-03 21:41 | 48.28586 | -122.68688 | 1179 ft | 158 kts | 194° |
| 2026-05-03 21:41 | 48.27515 | -122.69030 | 1177 ft | 156 kts | 194° |
| 2026-05-03 21:42 | 48.26448 | -122.69366 | 1184 ft | 155 kts | 194° |
| 2026-05-03 21:42 | 48.25378 | -122.69694 | 1181 ft | 158 kts | 194° |
| 2026-05-03 21:42 | 48.24304 | -122.70023 | 1181 ft | 158 kts | 194° |
| 2026-05-03 21:42 | 48.23232 | -122.70351 | 1187 ft | 158 kts | 194° |
| 2026-05-03 21:43 | 48.22155 | -122.70679 | 1184 ft | 157 kts | 194° |
| 2026-05-03 21:43 | 48.21084 | -122.71015 | 1183 ft | 158 kts | 194° |
| 2026-05-03 21:43 | 48.20018 | -122.71355 | 1191 ft | 156 kts | 194° |
| 2026-05-03 21:43 | 48.18980 | -122.71696 | 1190 ft | 156 kts | 194° |
| 2026-05-03 21:44 | 48.17898 | -122.72038 | 1194 ft | 157 kts | 194° |
| 2026-05-03 21:44 | 48.16834 | -122.72364 | 1189 ft | 159 kts | 194° |
| 2026-05-03 21:44 | 48.15761 | -122.72694 | 1193 ft | 158 kts | 194° |
| 2026-05-03 21:44 | 48.14675 | -122.72997 | 1193 ft | 160 kts | 194° |
| 2026-05-03 21:45 | 48.13591 | -122.73300 | 1190 ft | 159 kts | 194° |
| 2026-05-03 21:45 | 48.12503 | -122.73606 | 1189 ft | 158 kts | 194° |
| 2026-05-03 21:45 | 48.11413 | -122.73877 | 1191 ft | 155 kts | 194° |
| 2026-05-03 21:45 | 48.10504 | -122.74107 | 1183 ft | 159 kts | 194° |
| 2026-05-03 21:46 | 48.09418 | -122.74391 | 1179 ft | 159 kts | 194° |
| 2026-05-03 21:46 | 48.08330 | -122.74669 | 1173 ft | 161 kts | 194° |
| 2026-05-03 21:46 | 48.07225 | -122.74933 | 1170 ft | 160 kts | 194° |
| 2026-05-03 21:46 | 48.06128 | -122.75208 | 1169 ft | 158 kts | 194° |
| 2026-05-03 21:47 | 48.05037 | -122.75502 | 1161 ft | 159 kts | 194° |
| 2026-05-03 21:47 | 48.03958 | -122.75816 | 1159 ft | 158 kts | 194° |
| 2026-05-03 21:47 | 48.02877 | -122.76130 | 1152 ft | 156 kts | 194° |
| 2026-05-03 21:47 | 48.01827 | -122.76469 | 1153 ft | 154 kts | 194° |
| 2026-05-03 21:48 | 48.00787 | -122.76810 | 1142 ft | 153 kts | 194° |
| 2026-05-03 21:48 | 47.99739 | -122.77157 | 1135 ft | 153 kts | 194° |
| 2026-05-03 21:48 | 47.98704 | -122.77503 | 1144 ft | 154 kts | 194° |
| 2026-05-03 21:48 | 47.97645 | -122.77856 | 1131 ft | 157 kts | 194° |
| 2026-05-03 21:49 | 47.96584 | -122.78215 | 1130 ft | 155 kts | 194° |
| 2026-05-03 21:49 | 47.95525 | -122.78603 | 1145 ft | 155 kts | 194° |
| 2026-05-03 21:49 | 47.94475 | -122.78998 | 1138 ft | 156 kts | 194° |
| 2026-05-03 21:49 | 47.93430 | -122.79383 | 1131 ft | 157 kts | 193° |
| 2026-05-03 21:50 | 47.92368 | -122.79766 | 1129 ft | 157 kts | 194° |
| 2026-05-03 21:50 | 47.91315 | -122.80156 | 1125 ft | 156 kts | 194° |
| 2026-05-03 21:50 | 47.90274 | -122.80535 | 1120 ft | 154 kts | 194° |
| 2026-05-03 21:50 | 47.89223 | -122.80910 | 1123 ft | 156 kts | 194° |
| 2026-05-03 21:51 | 47.88167 | -122.81300 | 1119 ft | 157 kts | 193° |
| 2026-05-03 21:51 | 47.87097 | -122.81661 | 1110 ft | 160 kts | 194° |
| 2026-05-03 21:51 | 47.85983 | -122.81966 | 1113 ft | 164 kts | 192° |
| 2026-05-03 21:51 | 47.84892 | -122.82286 | 1107 ft | 161 kts | 193° |
| 2026-05-03 21:52 | 47.83804 | -122.82626 | 1130 ft | 157 kts | 194° |
| 2026-05-03 21:52 | 47.82731 | -122.82980 | 1135 ft | 157 kts | 194° |
| 2026-05-03 21:52 | 47.81653 | -122.83328 | 1130 ft | 159 kts | 194° |
| 2026-05-03 21:52 | 47.80570 | -122.83686 | 1138 ft | 161 kts | 193° |
| 2026-05-03 21:53 | 47.79467 | -122.84000 | 1142 ft | 159 kts | 194° |
| 2026-05-03 21:53 | 47.78365 | -122.84329 | 1142 ft | 162 kts | 193° |
| 2026-05-03 21:53 | 47.77266 | -122.84643 | 1142 ft | 161 kts | 193° |
| 2026-05-03 21:53 | 47.76156 | -122.84959 | 1133 ft | 163 kts | 193° |
| 2026-05-03 21:54 | 47.75056 | -122.85295 | 1130 ft | 161 kts | 193° |
| 2026-05-03 21:54 | 47.73948 | -122.85594 | 1132 ft | 162 kts | 193° |
| 2026-05-03 21:54 | 47.72832 | -122.85906 | 1132 ft | 163 kts | 193° |
| 2026-05-03 21:54 | 47.71740 | -122.86254 | 1158 ft | 158 kts | 193° |
| 2026-05-03 21:55 | 47.70715 | -122.86647 | 1160 ft | 152 kts | 193° |
| 2026-05-03 21:55 | 47.69685 | -122.87055 | 1158 ft | 153 kts | 193° |
| 2026-05-03 21:55 | 47.68661 | -122.87479 | 1159 ft | 153 kts | 193° |
| 2026-05-03 21:55 | 47.67630 | -122.87891 | 1160 ft | 154 kts | 193° |
| 2026-05-03 21:56 | 47.66594 | -122.88300 | 1160 ft | 153 kts | 194° |
| 2026-05-03 21:56 | 47.65575 | -122.88708 | 1161 ft | 153 kts | 194° |
| 2026-05-03 21:56 | 47.64545 | -122.89129 | 1158 ft | 153 kts | 194° |
| 2026-05-03 21:56 | 47.63850 | -122.89409 | 1156 ft | 154 kts | 194° |
| 2026-05-03 21:57 | 47.62821 | -122.89817 | 1157 ft | 152 kts | 194° |
| 2026-05-03 21:57 | 47.61463 | -122.90359 | 1156 ft | 151 kts | 193° |
| 2026-05-03 21:57 | 47.60439 | -122.90775 | 1167 ft | 153 kts | 194° |
| 2026-05-03 21:57 | 47.59404 | -122.91176 | 1161 ft | 156 kts | 194° |
| 2026-05-03 21:58 | 47.58352 | -122.91575 | 1165 ft | 157 kts | 193° |
| 2026-05-03 21:58 | 47.57646 | -122.91859 | 1169 ft | 159 kts | 194° |
| 2026-05-03 21:58 | 47.56581 | -122.92251 | 1162 ft | 157 kts | 193° |
| 2026-05-03 21:58 | 47.55509 | -122.92655 | 1166 ft | 160 kts | 194° |
| 2026-05-03 21:59 | 47.54425 | -122.93087 | 1161 ft | 161 kts | 194° |
| 2026-05-03 21:59 | 47.53353 | -122.93513 | 1158 ft | 161 kts | 195° |
| 2026-05-03 21:59 | 47.52263 | -122.93932 | 1155 ft | 161 kts | 193° |
| 2026-05-03 21:59 | 47.51175 | -122.94342 | 1157 ft | 162 kts | 193° |
| 2026-05-03 22:00 | 47.50086 | -122.94768 | 1160 ft | 159 kts | 194° |
| 2026-05-03 22:00 | 47.49013 | -122.95175 | 1158 ft | 160 kts | 193° |
| 2026-05-03 22:00 | 47.47943 | -122.95572 | 1145 ft | 159 kts | 194° |
| 2026-05-03 22:00 | 47.46887 | -122.95976 | 1147 ft | 156 kts | 193° |
| 2026-05-03 22:01 | 47.45830 | -122.96375 | 1137 ft | 158 kts | 193° |
| 2026-05-03 22:01 | 47.44756 | -122.96770 | 1140 ft | 159 kts | 194° |
| 2026-05-03 22:01 | 47.43680 | -122.97173 | 1132 ft | 158 kts | 194° |
| 2026-05-03 22:01 | 47.42620 | -122.97588 | 1131 ft | 159 kts | 193° |
| 2026-05-03 22:02 | 47.41562 | -122.98004 | 1130 ft | 157 kts | 193° |
| 2026-05-03 22:02 | 47.40505 | -122.98413 | 1125 ft | 156 kts | 193° |
| 2026-05-03 22:02 | 47.39457 | -122.98844 | 1124 ft | 156 kts | 194° |
| 2026-05-03 22:02 | 47.38402 | -122.99261 | 1122 ft | 157 kts | 193° |
| 2026-05-03 22:03 | 47.37341 | -122.99668 | 1120 ft | 157 kts | 193° |
| 2026-05-03 22:03 | 47.36303 | -123.00074 | 1115 ft | 154 kts | 194° |
| 2026-05-03 22:03 | 47.35237 | -123.00458 | 1122 ft | 156 kts | 193° |
| 2026-05-03 22:03 | 47.34190 | -123.00828 | 1117 ft | 154 kts | 193° |
| 2026-05-03 22:04 | 47.33145 | -123.01194 | 1104 ft | 156 kts | 193° |
| 2026-05-03 22:04 | 47.32086 | -123.01570 | 1122 ft | 154 kts | 193° |
| 2026-05-03 22:04 | 47.31054 | -123.01949 | 1099 ft | 158 kts | 193° |
| 2026-05-03 22:04 | 47.29977 | -123.02363 | 1112 ft | 161 kts | 193° |
| 2026-05-03 22:05 | 47.28887 | -123.02768 | 1109 ft | 163 kts | 193° |
| 2026-05-03 22:05 | 47.27798 | -123.03170 | 1111 ft | 157 kts | 193° |
| 2026-05-03 22:05 | 47.26739 | -123.03571 | 1108 ft | 158 kts | 193° |
| 2026-05-03 22:05 | 47.25671 | -123.03967 | 1109 ft | 159 kts | 193° |
| 2026-05-03 22:06 | 47.24605 | -123.04378 | 1111 ft | 158 kts | 193° |
| 2026-05-03 22:06 | 47.23539 | -123.04792 | 1109 ft | 158 kts | 193° |
| 2026-05-03 22:06 | 47.22464 | -123.05200 | 1111 ft | 161 kts | 193° |
| 2026-05-03 22:06 | 47.21373 | -123.05623 | 1111 ft | 161 kts | 193° |
| 2026-05-03 22:07 | 47.20277 | -123.06020 | 1107 ft | 160 kts | 193° |
| 2026-05-03 22:07 | 47.19217 | -123.06408 | 1110 ft | 157 kts | 193° |
| 2026-05-03 22:07 | 47.18160 | -123.06781 | 1109 ft | 157 kts | 193° |
| 2026-05-03 22:07 | 47.17090 | -123.07171 | 1107 ft | 159 kts | 193° |
| 2026-05-03 22:08 | 47.16015 | -123.07594 | 1116 ft | 160 kts | 193° |
| 2026-05-03 22:08 | 47.14932 | -123.08015 | 1107 ft | 161 kts | 193° |
| 2026-05-03 22:08 | 47.13872 | -123.08412 | 1112 ft | 158 kts | 193° |
| 2026-05-03 22:08 | 47.12810 | -123.08807 | 1099 ft | 156 kts | 193° |
| 2026-05-03 22:09 | 47.11741 | -123.09182 | 1122 ft | 159 kts | 193° |
| 2026-05-03 22:09 | 47.10675 | -123.09576 | 1137 ft | 156 kts | 193° |
| 2026-05-03 22:09 | 47.09628 | -123.09972 | 1139 ft | 159 kts | 193° |
| 2026-05-03 22:10 | 47.07504 | -123.10769 | 1123 ft | 156 kts | 194° |
| 2026-05-03 22:10 | 47.06453 | -123.11156 | 1144 ft | 157 kts | 193° |
| 2026-05-03 22:10 | 47.05395 | -123.11565 | 1118 ft | 159 kts | 193° |
| 2026-05-03 22:10 | 47.04321 | -123.11962 | 1155 ft | 156 kts | 193° |
| 2026-05-03 22:11 | 47.03267 | -123.12340 | 1125 ft | 157 kts | 193° |
| 2026-05-03 22:11 | 47.02199 | -123.12739 | 1147 ft | 159 kts | 193° |
| 2026-05-03 22:11 | 47.02155 | -123.12714 | 1217 ft | 0 kts | 202° |
| 2026-05-03 22:11 | 47.02161 | -123.12713 | 1199 ft | 0 kts | 248° |
| 2026-05-03 22:12 | 47.02160 | -123.12713 | 1200 ft | 0 kts | 255° |
| 2026-05-03 22:14 | 47.02160 | -123.12712 | 1200 ft | 0 kts | 262° |
| 2026-05-03 22:17 | 47.02160 | -123.12713 | 1201 ft | 0 kts | 257° |
| 2026-05-03 22:19 | 47.02097 | -123.13141 | 1612 ft | 98 kts | 261° |
| 2026-05-03 22:19 | 47.01820 | -123.14165 | 1633 ft | 122 kts | 242° |
| 2026-05-03 22:19 | 47.01191 | -123.15158 | 1501 ft | 147 kts | 206° |
| 2026-05-03 22:19 | 47.00265 | -123.14943 | 1718 ft | 130 kts | 144° |
| 2026-05-03 22:20 | 46.99430 | -123.14454 | 2440 ft | 142 kts | 155° |
| 2026-05-03 22:20 | 46.98424 | -123.13887 | 2752 ft | 157 kts | 154° |
| 2026-05-03 22:20 | 46.97508 | -123.13332 | 2731 ft | 150 kts | 154° |
| 2026-05-03 22:20 | 46.96531 | -123.12717 | 2731 ft | 155 kts | 153° |
| 2026-05-03 22:21 | 46.95557 | -123.12073 | 2919 ft | 155 kts | 154° |
| 2026-05-03 22:21 | 46.94565 | -123.11401 | 2687 ft | 154 kts | 153° |
| 2026-05-03 22:21 | 46.93599 | -123.10772 | 2378 ft | 154 kts | 153° |
| 2026-05-03 22:21 | 46.92602 | -123.10164 | 2179 ft | 151 kts | 153° |
| 2026-05-03 22:22 | 46.91594 | -123.09548 | 2035 ft | 152 kts | 153° |
| 2026-05-03 22:22 | 46.90604 | -123.08980 | 2012 ft | 156 kts | 153° |
| 2026-05-03 22:22 | 46.89609 | -123.08360 | 1810 ft | 153 kts | 153° |
| 2026-05-03 22:22 | 46.88651 | -123.07753 | 1569 ft | 157 kts | 153° |
| 2026-05-03 22:23 | 46.87696 | -123.07113 | 1322 ft | 155 kts | 153° |
| 2026-05-03 22:23 | 46.86749 | -123.06439 | 1203 ft | 150 kts | 153° |
| 2026-05-03 22:23 | 46.85794 | -123.05783 | 1217 ft | 152 kts | 153° |
| 2026-05-03 22:23 | 46.84831 | -123.05125 | 1210 ft | 150 kts | 153° |
| 2026-05-03 22:24 | 46.83864 | -123.04489 | 1212 ft | 155 kts | 153° |
| 2026-05-03 22:24 | 46.82892 | -123.03860 | 1199 ft | 152 kts | 153° |
| 2026-05-03 22:24 | 46.81936 | -123.03233 | 1192 ft | 154 kts | 153° |
| 2026-05-03 22:24 | 46.80951 | -123.02550 | 1193 ft | 158 kts | 153° |
| 2026-05-03 22:25 | 46.79959 | -123.01859 | 1191 ft | 158 kts | 153° |
| 2026-05-03 22:25 | 46.79001 | -123.01156 | 1198 ft | 156 kts | 153° |
| 2026-05-03 22:25 | 46.78051 | -123.00459 | 1201 ft | 154 kts | 153° |
| 2026-05-03 22:25 | 46.77069 | -122.99744 | 1190 ft | 158 kts | 153° |
| 2026-05-03 22:26 | 46.76089 | -122.99047 | 1198 ft | 158 kts | 153° |
| 2026-05-03 22:26 | 46.75111 | -122.98337 | 1189 ft | 157 kts | 153° |
| 2026-05-03 22:26 | 46.74143 | -122.97658 | 1194 ft | 152 kts | 153° |
| 2026-05-03 22:26 | 46.73167 | -122.96990 | 1199 ft | 157 kts | 153° |
| 2026-05-03 22:27 | 46.72161 | -122.96332 | 1194 ft | 152 kts | 153° |
| 2026-05-03 22:27 | 46.71184 | -122.95651 | 1188 ft | 159 kts | 153° |
| 2026-05-03 22:27 | 46.70209 | -122.94970 | 1189 ft | 157 kts | 153° |
| 2026-05-03 22:27 | 46.69205 | -122.94287 | 1191 ft | 157 kts | 153° |
| 2026-05-03 22:28 | 46.68217 | -122.93565 | 1190 ft | 160 kts | 153° |
| 2026-05-03 22:28 | 46.67236 | -122.92865 | 1187 ft | 157 kts | 153° |
| 2026-05-03 22:28 | 46.66234 | -122.92163 | 1189 ft | 161 kts | 153° |
| 2026-05-03 22:28 | 46.65253 | -122.91446 | 1189 ft | 161 kts | 153° |
| 2026-05-03 22:29 | 46.64256 | -122.90732 | 1187 ft | 156 kts | 153° |
| 2026-05-03 22:29 | 46.63294 | -122.90011 | 1197 ft | 155 kts | 153° |
| 2026-05-03 22:29 | 46.62310 | -122.89244 | 1188 ft | 165 kts | 144° |
| 2026-05-03 22:29 | 46.61415 | -122.88337 | 1190 ft | 158 kts | 143° |
| 2026-05-03 22:30 | 46.60507 | -122.87385 | 1195 ft | 159 kts | 143° |
| 2026-05-03 22:30 | 46.59627 | -122.86436 | 1195 ft | 161 kts | 143° |
| 2026-05-03 22:30 | 46.58733 | -122.85479 | 1195 ft | 155 kts | 143° |
| 2026-05-03 22:30 | 46.57846 | -122.84547 | 1187 ft | 163 kts | 143° |
| 2026-05-03 22:31 | 46.56973 | -122.83586 | 1191 ft | 159 kts | 143° |
| 2026-05-03 22:31 | 46.56111 | -122.82645 | 1194 ft | 154 kts | 143° |
| 2026-05-03 22:31 | 46.55252 | -122.81672 | 1183 ft | 157 kts | 144° |
| 2026-05-03 22:31 | 46.54361 | -122.80724 | 1181 ft | 152 kts | 143° |
| 2026-05-03 22:32 | 46.53473 | -122.79826 | 1192 ft | 161 kts | 143° |
| 2026-05-03 22:32 | 46.52609 | -122.78755 | 1193 ft | 157 kts | 135° |
| 2026-05-03 22:32 | 46.51813 | -122.77687 | 1182 ft | 153 kts | 135° |
| 2026-05-03 22:32 | 46.51043 | -122.76605 | 1181 ft | 157 kts | 135° |
| 2026-05-03 22:33 | 46.50237 | -122.75544 | 1183 ft | 156 kts | 135° |
| 2026-05-03 22:33 | 46.49426 | -122.74489 | 1177 ft | 153 kts | 135° |
| 2026-05-03 22:33 | 46.48598 | -122.73416 | 1187 ft | 164 kts | 135° |
| 2026-05-03 22:33 | 46.47809 | -122.72374 | 1178 ft | 152 kts | 135° |
| 2026-05-03 22:34 | 46.47029 | -122.71288 | 1175 ft | 154 kts | 135° |
| 2026-05-03 22:34 | 46.46261 | -122.70218 | 1179 ft | 155 kts | 135° |
| 2026-05-03 22:34 | 46.45455 | -122.69120 | 1183 ft | 164 kts | 135° |
| 2026-05-03 22:34 | 46.44667 | -122.68005 | 1165 ft | 154 kts | 135° |
| 2026-05-03 22:35 | 46.43916 | -122.66874 | 1171 ft | 161 kts | 135° |
| 2026-05-03 22:35 | 46.43160 | -122.65696 | 1183 ft | 154 kts | 135° |
| 2026-05-03 22:35 | 46.42434 | -122.64477 | 1177 ft | 164 kts | 130° |
| 2026-05-03 22:35 | 46.41781 | -122.63210 | 1244 ft | 158 kts | 129° |
| 2026-05-03 22:36 | 46.41166 | -122.61939 | 1286 ft | 157 kts | 124° |
| 2026-05-03 22:36 | 46.40548 | -122.60572 | 1387 ft | 162 kts | 124° |
| 2026-05-03 22:36 | 46.39901 | -122.59262 | 1503 ft | 160 kts | 131° |
| 2026-05-03 22:36 | 46.39176 | -122.58061 | 1500 ft | 161 kts | 131° |
| 2026-05-03 22:37 | 46.38443 | -122.56841 | 1499 ft | 159 kts | 131° |
| 2026-05-03 22:37 | 46.37707 | -122.55632 | 1492 ft | 152 kts | 131° |
| 2026-05-03 22:37 | 46.36976 | -122.54470 | 1641 ft | 163 kts | 131° |
| 2026-05-03 22:37 | 46.36245 | -122.53297 | 2115 ft | 152 kts | 131° |
| 2026-05-03 22:38 | 46.35536 | -122.52137 | 2663 ft | 155 kts | 131° |
| 2026-05-03 22:38 | 46.34825 | -122.50991 | 2704 ft | 153 kts | 131° |
| 2026-05-03 22:38 | 46.34146 | -122.49873 | 2692 ft | 149 kts | 131° |
| 2026-05-03 22:38 | 46.33466 | -122.48765 | 2689 ft | 139 kts | 131° |
| 2026-05-03 22:39 | 46.32792 | -122.47645 | 2683 ft | 151 kts | 131° |
| 2026-05-03 22:39 | 46.32098 | -122.46541 | 2688 ft | 148 kts | 131° |
| 2026-05-03 22:39 | 46.31409 | -122.45428 | 2681 ft | 150 kts | 131° |
| 2026-05-03 22:39 | 46.30827 | -122.44220 | 2695 ft | 149 kts | 122° |
| 2026-05-03 22:40 | 46.30271 | -122.42919 | 2687 ft | 150 kts | 122° |
| 2026-05-03 22:40 | 46.29746 | -122.41657 | 2696 ft | 144 kts | 121° |
| 2026-05-03 22:40 | 46.29245 | -122.40380 | 2676 ft | 154 kts | 118° |
| 2026-05-03 22:40 | 46.28751 | -122.39046 | 2683 ft | 155 kts | 118° |
| 2026-05-03 22:41 | 46.28229 | -122.37652 | 2677 ft | 157 kts | 118° |
| 2026-05-03 22:41 | 46.27725 | -122.36287 | 3008 ft | 153 kts | 118° |
| 2026-05-03 22:41 | 46.27219 | -122.34906 | 3597 ft | 153 kts | 118° |
| 2026-05-03 22:41 | 46.26671 | -122.33630 | 4090 ft | 153 kts | 122° |
| 2026-05-03 22:42 | 46.26293 | -122.32766 | 4310 ft | 152 kts | 122° |
| 2026-05-03 22:42 | 46.25720 | -122.31437 | 4588 ft | 157 kts | 122° |
| 2026-05-03 22:42 | 46.24949 | -122.29691 | 4916 ft | 151 kts | 122° |
| 2026-05-03 22:42 | 46.24573 | -122.28832 | 5016 ft | 150 kts | 122° |
| 2026-05-03 22:43 | 46.23821 | -122.27086 | 5171 ft | 153 kts | 122° |
| 2026-05-03 22:43 | 46.23252 | -122.25772 | 5342 ft | 156 kts | 122° |
| 2026-05-03 22:43 | 46.22854 | -122.24878 | 5479 ft | 152 kts | 123° |
| 2026-05-03 22:43 | 46.22326 | -122.23712 | 5578 ft | 124 kts | 121° |
| 2026-05-03 22:44 | 46.21998 | -122.22676 | 5633 ft | 104 kts | 103° |
| 2026-05-03 22:44 | 46.21942 | -122.21744 | 5626 ft | 77 kts | 112° |
| 2026-05-03 22:44 | 46.21802 | -122.21269 | 5745 ft | 31 kts | 189° |
| 2026-05-03 22:44 | 46.21597 | -122.21483 | 5609 ft | 44 kts | 211° |
| 2026-05-03 22:45 | 46.21483 | -122.21674 | 5512 ft | 2 kts | 305° |
| 2026-05-03 22:45 | 46.21483 | -122.21676 | 5405 ft | 0 kts | 307° |
| 2026-05-03 22:45 | 46.21484 | -122.21677 | 5286 ft | 0 kts | 307° |
| 2026-05-03 22:45 | 46.21485 | -122.21678 | 5173 ft | 0 kts | 307° |
| 2026-05-03 22:46 | 46.21486 | -122.21679 | 5057 ft | 1 kts | 307° |
| 2026-05-03 22:46 | 46.21476 | -122.21663 | 5042 ft | 5 kts | 309° |
| 2026-05-03 22:46 | 46.21460 | -122.21633 | 5081 ft | 1 kts | 309° |
| 2026-05-03 22:46 | 46.21455 | -122.21624 | 5103 ft | 1 kts | 309° |
| 2026-05-03 22:47 | 46.21453 | -122.21621 | 5134 ft | 0 kts | 309° |
| 2026-05-03 22:47 | 46.21454 | -122.21621 | 5124 ft | 0 kts | 309° |
| 2026-05-03 22:47 | 46.21453 | -122.21622 | 5107 ft | 0 kts | 309° |
| 2026-05-03 22:48 | 46.21454 | -122.21622 | 5122 ft | 0 kts | 309° |
| 2026-05-03 22:48 | 46.21454 | -122.21621 | 5138 ft | 0 kts | 316° |
| 2026-05-03 22:48 | 46.21453 | -122.21622 | 5145 ft | 0 kts | 309° |
| 2026-05-03 22:49 | 46.21454 | -122.21621 | 5142 ft | 0 kts | 309° |
| 2026-05-03 22:49 | 46.21454 | -122.21622 | 5139 ft | 0 kts | 309° |
| 2026-05-03 22:50 | 46.21454 | -122.21621 | 5143 ft | 0 kts | 309° |
| 2026-05-03 22:50 | 46.21454 | -122.21622 | 5127 ft | 0 kts | 309° |
| 2026-05-03 22:50 | 46.21462 | -122.21613 | 5118 ft | 2 kts | 309° |
| 2026-05-03 22:50 | 46.21470 | -122.21607 | 5098 ft | 1 kts | 310° |
| 2026-05-03 22:51 | 46.21475 | -122.21601 | 5100 ft | 1 kts | 310° |
| 2026-05-03 22:51 | 46.21477 | -122.21598 | 5100 ft | 0 kts | 310° |
| 2026-05-03 22:51 | 46.21478 | -122.21597 | 5085 ft | 0 kts | 310° |
| 2026-05-03 22:53 | 46.21479 | -122.21598 | 5031 ft | 0 kts | 310° |
| 2026-05-03 22:53 | 46.21480 | -122.21598 | 4986 ft | 0 kts | 310° |
| 2026-05-03 22:54 | 46.21479 | -122.21598 | 4981 ft | 0 kts | 310° |
| 2026-05-03 22:54 | 46.21480 | -122.21598 | 4991 ft | 0 kts | 310° |
| 2026-05-03 22:55 | 46.21479 | -122.21598 | 4993 ft | 0 kts | 310° |
| 2026-05-03 22:55 | 46.21480 | -122.21598 | 4981 ft | 0 kts | 310° |
| 2026-05-03 22:56 | 46.21480 | -122.21597 | 4980 ft | 0 kts | 310° |
| 2026-05-03 22:56 | 46.21480 | -122.21598 | 4976 ft | 0 kts | 310° |
| 2026-05-03 22:56 | 46.21585 | -122.21783 | 5093 ft | 57 kts | 311° |
| 2026-05-03 22:57 | 46.21869 | -122.22306 | 4864 ft | 66 kts | 306° |
| 2026-05-03 22:57 | 46.21928 | -122.23139 | 4852 ft | 104 kts | 269° |
| 2026-05-03 22:57 | 46.21777 | -122.24282 | 4784 ft | 129 kts | 259° |
| 2026-05-03 22:57 | 46.21217 | -122.25388 | 4695 ft | 148 kts | 225° |
| 2026-05-03 22:58 | 46.20209 | -122.25915 | 4707 ft | 162 kts | 190° |
| 2026-05-03 22:58 | 46.19103 | -122.26065 | 4708 ft | 159 kts | 189° |
| 2026-05-03 22:58 | 46.18013 | -122.26191 | 4729 ft | 156 kts | 189° |
| 2026-05-03 22:58 | 46.16924 | -122.26332 | 4711 ft | 156 kts | 188° |
| 2026-05-03 22:59 | 46.15830 | -122.26479 | 4721 ft | 157 kts | 189° |
| 2026-05-03 22:59 | 46.14738 | -122.26644 | 4716 ft | 160 kts | 189° |
| 2026-05-03 22:59 | 46.13628 | -122.26790 | 4725 ft | 157 kts | 189° |
| 2026-05-03 22:59 | 46.12513 | -122.26922 | 4713 ft | 163 kts | 189° |
| 2026-05-03 23:00 | 46.11430 | -122.27129 | 4728 ft | 155 kts | 189° |
| 2026-05-03 23:00 | 46.10368 | -122.27383 | 4718 ft | 155 kts | 189° |
| 2026-05-03 23:00 | 46.09305 | -122.27646 | 4723 ft | 156 kts | 189° |
| 2026-05-03 23:00 | 46.08244 | -122.27907 | 4719 ft | 156 kts | 189° |
| 2026-05-03 23:01 | 46.07180 | -122.28174 | 4715 ft | 156 kts | 189° |
| 2026-05-03 23:01 | 46.06120 | -122.28430 | 4715 ft | 154 kts | 189° |
| 2026-05-03 23:01 | 46.05063 | -122.28700 | 4705 ft | 156 kts | 192° |
| 2026-05-03 23:01 | 46.04041 | -122.29313 | 4706 ft | 160 kts | 208° |
| 2026-05-03 23:02 | 46.03100 | -122.30055 | 4706 ft | 158 kts | 208° |
| 2026-05-03 23:02 | 46.02150 | -122.30805 | 4707 ft | 155 kts | 208° |
| 2026-05-03 23:02 | 46.01201 | -122.31553 | 4714 ft | 155 kts | 208° |
| 2026-05-03 23:02 | 46.00254 | -122.32293 | 4706 ft | 155 kts | 208° |
| 2026-05-03 23:03 | 45.99303 | -122.33041 | 4704 ft | 156 kts | 208° |
| 2026-05-03 23:03 | 45.98352 | -122.33796 | 4666 ft | 155 kts | 208° |
| 2026-05-03 23:03 | 45.97401 | -122.34541 | 4466 ft | 154 kts | 208° |
| 2026-05-03 23:03 | 45.96457 | -122.35276 | 4241 ft | 155 kts | 208° |
| 2026-05-03 23:04 | 45.95515 | -122.36005 | 4058 ft | 155 kts | 208° |
| 2026-05-03 23:04 | 45.94573 | -122.36740 | 3924 ft | 154 kts | 208° |
| 2026-05-03 23:04 | 45.93631 | -122.37472 | 3797 ft | 153 kts | 208° |
| 2026-05-03 23:04 | 45.92692 | -122.38194 | 3657 ft | 153 kts | 208° |
| 2026-05-03 23:05 | 45.91773 | -122.38898 | 3542 ft | 152 kts | 208° |
| 2026-05-03 23:05 | 45.90820 | -122.39624 | 3432 ft | 153 kts | 208° |
| 2026-05-03 23:05 | 45.89884 | -122.40337 | 3330 ft | 153 kts | 208° |
| 2026-05-03 23:05 | 45.88947 | -122.41048 | 3241 ft | 153 kts | 208° |
| 2026-05-03 23:06 | 45.88012 | -122.41757 | 3162 ft | 152 kts | 208° |
| 2026-05-03 23:06 | 45.87078 | -122.42473 | 3074 ft | 153 kts | 208° |
| 2026-05-03 23:06 | 45.86136 | -122.43211 | 3016 ft | 155 kts | 208° |
| 2026-05-03 23:06 | 45.85201 | -122.43940 | 2842 ft | 156 kts | 208° |
| 2026-05-03 23:07 | 45.84260 | -122.44688 | 2557 ft | 153 kts | 208° |
| 2026-05-03 23:07 | 45.83316 | -122.45400 | 2298 ft | 156 kts | 208° |
| 2026-05-03 23:07 | 45.82370 | -122.46085 | 2070 ft | 153 kts | 208° |
| 2026-05-03 23:07 | 45.81419 | -122.46773 | 1919 ft | 149 kts | 208° |
| 2026-05-03 23:08 | 45.80464 | -122.47474 | 1744 ft | 157 kts | 208° |
| 2026-05-03 23:08 | 45.79507 | -122.48151 | 1618 ft | 153 kts | 208° |
| 2026-05-03 23:08 | 45.78552 | -122.48838 | 1514 ft | 151 kts | 208° |
| 2026-05-03 23:08 | 45.77624 | -122.49523 | 1496 ft | 151 kts | 208° |
| 2026-05-03 23:09 | 45.76677 | -122.50209 | 1486 ft | 155 kts | 208° |
| 2026-05-03 23:09 | 45.75722 | -122.50887 | 1487 ft | 151 kts | 208° |
| 2026-05-03 23:09 | 45.74779 | -122.51551 | 1486 ft | 149 kts | 208° |
| 2026-05-03 23:09 | 45.73839 | -122.52234 | 1481 ft | 150 kts | 208° |
| 2026-05-03 23:10 | 45.72907 | -122.52921 | 1480 ft | 154 kts | 208° |
| 2026-05-03 23:10 | 45.71957 | -122.53594 | 1481 ft | 151 kts | 208° |
| 2026-05-03 23:10 | 45.71005 | -122.54276 | 1480 ft | 151 kts | 208° |
| 2026-05-03 23:10 | 45.70069 | -122.54956 | 1480 ft | 152 kts | 208° |
| 2026-05-03 23:11 | 45.69120 | -122.55627 | 1477 ft | 152 kts | 208° |
| 2026-05-03 23:11 | 45.68181 | -122.56291 | 1480 ft | 151 kts | 208° |
| 2026-05-03 23:11 | 45.67245 | -122.56972 | 1477 ft | 152 kts | 208° |
| 2026-05-03 23:11 | 45.66285 | -122.57655 | 1478 ft | 155 kts | 208° |
| 2026-05-03 23:12 | 45.65332 | -122.58322 | 1476 ft | 155 kts | 208° |
| 2026-05-03 23:12 | 45.64407 | -122.58977 | 1469 ft | 140 kts | 209° |
| 2026-05-03 23:12 | 45.63598 | -122.59608 | 1410 ft | 127 kts | 212° |
| 2026-05-03 23:12 | 45.62847 | -122.60237 | 1395 ft | 126 kts | 213° |
| 2026-05-03 23:13 | 45.62094 | -122.60871 | 1432 ft | 125 kts | 213° |
| 2026-05-03 23:13 | 45.61327 | -122.61487 | 1402 ft | 126 kts | 213° |
| 2026-05-03 23:13 | 45.60574 | -122.62122 | 1402 ft | 127 kts | 213° |
| 2026-05-03 23:13 | 45.59839 | -122.62749 | 1407 ft | 124 kts | 213° |
| 2026-05-03 23:14 | 45.59125 | -122.63350 | 1403 ft | 109 kts | 213° |
| 2026-05-03 23:14 | 45.58494 | -122.63821 | 1408 ft | 97 kts | 210° |
| 2026-05-03 23:14 | 45.57806 | -122.64275 | 1373 ft | 117 kts | 208° |
| 2026-05-03 23:14 | 45.57090 | -122.64758 | 1352 ft | 112 kts | 207° |
| 2026-05-03 23:15 | 45.56386 | -122.65231 | 1306 ft | 110 kts | 209° |
| 2026-05-03 23:15 | 45.55704 | -122.65677 | 1295 ft | 104 kts | 207° |
| 2026-05-03 23:15 | 45.55057 | -122.66076 | 1152 ft | 99 kts | 203° |
| 2026-05-03 23:15 | 45.54428 | -122.66379 | 980 ft | 94 kts | 196° |
| 2026-05-03 23:16 | 45.53828 | -122.66578 | 878 ft | 73 kts | 243° |
| 2026-05-03 23:16 | 45.53719 | -122.66937 | 768 ft | 35 kts | 355° |
| 2026-05-03 23:16 | 45.53978 | -122.67065 | 659 ft | 39 kts | 347° |
| 2026-05-03 23:16 | 45.54221 | -122.67058 | 411 ft | 25 kts | 308° |
| 2026-05-03 23:17 | 45.54292 | -122.67053 | 258 ft | 4 kts | 300° |
| 2026-05-03 23:17 | 45.54298 | -122.67057 | 239 ft | 0 kts | 310° |
| 2026-05-03 23:17 | 45.54291 | -122.67049 | 234 ft | 1 kts | 323° |
| 2026-05-03 23:17 | 45.54302 | -122.67056 | 238 ft | 0 kts | 321° |
| 2026-05-03 23:20 | 45.54311 | -122.67062 | 277 ft | 5 kts | 329° |
| 2026-05-03 23:20 | 45.54435 | -122.67084 | 539 ft | 39 kts | 17° |
| 2026-05-03 23:20 | 45.55021 | -122.67092 | 787 ft | 126 kts | 357° |
| 2026-05-03 23:21 | 45.56107 | -122.67031 | 731 ft | 176 kts | 1° |
| 2026-05-03 23:21 | 45.57333 | -122.66981 | 919 ft | 175 kts | 0° |
| 2026-05-03 23:21 | 45.58519 | -122.66953 | 1183 ft | 148 kts | 1° |
| 2026-05-03 23:21 | 45.59486 | -122.66926 | 1711 ft | 135 kts | 1° |
| 2026-05-03 23:22 | 45.61329 | -122.66939 | 3386 ft | 144 kts | 1° |
| 2026-05-03 23:22 | 45.62399 | -122.66971 | 3924 ft | 161 kts | 1° |
| 2026-05-03 23:22 | 45.63518 | -122.67000 | 4023 ft | 158 kts | 1° |
| 2026-05-03 23:23 | 45.64584 | -122.67018 | 4051 ft | 154 kts | 1° |
| 2026-05-03 23:23 | 45.65642 | -122.67045 | 4058 ft | 151 kts | 1° |
| 2026-05-03 23:23 | 45.66684 | -122.67077 | 4059 ft | 149 kts | 1° |
| 2026-05-03 23:23 | 45.67723 | -122.67100 | 4059 ft | 149 kts | 1° |
| 2026-05-03 23:24 | 45.68760 | -122.67122 | 4063 ft | 149 kts | 1° |
| 2026-05-03 23:24 | 45.69799 | -122.67151 | 4067 ft | 149 kts | 1° |
| 2026-05-03 23:24 | 45.70834 | -122.67177 | 4066 ft | 150 kts | 1° |
| 2026-05-03 23:24 | 45.71364 | -122.67193 | 4059 ft | 154 kts | 1° |
| 2026-05-03 23:25 | 45.72537 | -122.67223 | 4065 ft | 160 kts | 1° |
| 2026-05-03 23:25 | 45.73649 | -122.67240 | 4066 ft | 160 kts | 1° |
| 2026-05-03 23:25 | 45.74767 | -122.67268 | 4066 ft | 160 kts | 1° |
| 2026-05-03 23:25 | 45.75877 | -122.67311 | 4068 ft | 161 kts | 1° |
| 2026-05-03 23:26 | 45.77003 | -122.67339 | 4065 ft | 162 kts | 2° |
| 2026-05-03 23:26 | 45.78131 | -122.67380 | 4064 ft | 161 kts | 1° |
| 2026-05-03 23:26 | 45.79248 | -122.67424 | 4056 ft | 162 kts | 1° |
| 2026-05-03 23:26 | 45.80376 | -122.67451 | 4072 ft | 161 kts | 1° |
| 2026-05-03 23:27 | 45.81498 | -122.67486 | 4077 ft | 162 kts | 1° |
| 2026-05-03 23:27 | 45.82621 | -122.67514 | 4074 ft | 162 kts | 1° |
| 2026-05-03 23:27 | 45.83749 | -122.67544 | 4075 ft | 162 kts | 2° |
| 2026-05-03 23:27 | 45.84704 | -122.67581 | 4075 ft | 162 kts | 1° |
| 2026-05-03 23:28 | 45.85822 | -122.67609 | 4067 ft | 161 kts | 1° |
| 2026-05-03 23:28 | 45.86947 | -122.67636 | 4073 ft | 161 kts | 1° |
| 2026-05-03 23:28 | 45.88048 | -122.67676 | 4074 ft | 161 kts | 2° |
| 2026-05-03 23:28 | 45.89170 | -122.67702 | 4074 ft | 161 kts | 2° |
| 2026-05-03 23:29 | 45.90291 | -122.67734 | 4076 ft | 160 kts | 1° |
| 2026-05-03 23:29 | 45.91409 | -122.67777 | 4071 ft | 162 kts | 2° |
| 2026-05-03 23:29 | 45.92538 | -122.67805 | 4069 ft | 162 kts | 1° |
| 2026-05-03 23:29 | 45.93653 | -122.67840 | 4073 ft | 160 kts | 2° |
| 2026-05-03 23:30 | 45.94773 | -122.67869 | 4079 ft | 162 kts | 2° |
| 2026-05-03 23:30 | 45.95897 | -122.67909 | 4074 ft | 161 kts | 1° |
| 2026-05-03 23:30 | 45.97017 | -122.67956 | 4080 ft | 162 kts | 1° |
| 2026-05-03 23:30 | 45.98143 | -122.67980 | 4081 ft | 162 kts | 1° |
| 2026-05-03 23:31 | 45.99258 | -122.68008 | 4080 ft | 160 kts | 2° |
| 2026-05-03 23:31 | 46.00372 | -122.68034 | 4078 ft | 161 kts | 2° |
| 2026-05-03 23:31 | 46.01490 | -122.68048 | 4083 ft | 159 kts | 1° |
| 2026-05-03 23:31 | 46.02595 | -122.68070 | 4082 ft | 159 kts | 2° |
| 2026-05-03 23:32 | 46.03707 | -122.68092 | 4080 ft | 160 kts | 1° |
| 2026-05-03 23:32 | 46.04827 | -122.68111 | 4081 ft | 161 kts | 2° |
| 2026-05-03 23:32 | 46.05928 | -122.68132 | 4084 ft | 158 kts | 1° |
| 2026-05-03 23:32 | 46.07036 | -122.68137 | 4085 ft | 159 kts | 2° |
| 2026-05-03 23:33 | 46.08145 | -122.68163 | 4085 ft | 160 kts | 2° |
| 2026-05-03 23:33 | 46.09235 | -122.68161 | 4084 ft | 156 kts | 1° |
| 2026-05-03 23:33 | 46.10328 | -122.68146 | 4081 ft | 157 kts | 1° |
| 2026-05-03 23:33 | 46.11425 | -122.68131 | 4078 ft | 156 kts | 1° |
| 2026-05-03 23:34 | 46.12515 | -122.68117 | 4078 ft | 158 kts | 1° |
| 2026-05-03 23:34 | 46.13612 | -122.68098 | 4083 ft | 157 kts | 1° |
| 2026-05-03 23:34 | 46.14702 | -122.68075 | 4089 ft | 156 kts | 2° |
| 2026-05-03 23:34 | 46.15793 | -122.68056 | 4086 ft | 157 kts | 1° |
| 2026-05-03 23:35 | 46.16878 | -122.68043 | 4085 ft | 158 kts | 2° |
| 2026-05-03 23:35 | 46.17975 | -122.68021 | 4091 ft | 155 kts | 2° |
| 2026-05-03 23:35 | 46.19056 | -122.67998 | 4089 ft | 156 kts | 2° |
| 2026-05-03 23:35 | 46.20143 | -122.67978 | 4091 ft | 156 kts | 2° |
| 2026-05-03 23:36 | 46.21231 | -122.67962 | 4085 ft | 157 kts | 2° |
| 2026-05-03 23:36 | 46.22309 | -122.67946 | 4086 ft | 157 kts | 2° |
| 2026-05-03 23:36 | 46.23395 | -122.67924 | 4086 ft | 156 kts | 2° |
| 2026-05-03 23:36 | 46.24481 | -122.67905 | 4087 ft | 157 kts | 2° |
| 2026-05-03 23:37 | 46.25570 | -122.67886 | 4088 ft | 155 kts | 2° |
| 2026-05-03 23:37 | 46.26653 | -122.67862 | 4091 ft | 154 kts | 2° |
| 2026-05-03 23:37 | 46.27735 | -122.67838 | 4091 ft | 157 kts | 2° |
| 2026-05-03 23:37 | 46.28828 | -122.67826 | 4092 ft | 157 kts | 2° |
| 2026-05-03 23:38 | 46.29917 | -122.67811 | 4083 ft | 156 kts | 2° |
| 2026-05-03 23:38 | 46.31008 | -122.67787 | 4088 ft | 157 kts | 2° |
| 2026-05-03 23:38 | 46.32091 | -122.67767 | 4088 ft | 156 kts | 2° |
| 2026-05-03 23:38 | 46.33183 | -122.67750 | 4088 ft | 158 kts | 2° |
| 2026-05-03 23:39 | 46.34289 | -122.67733 | 4084 ft | 156 kts | 2° |
| 2026-05-03 23:39 | 46.35374 | -122.67714 | 4084 ft | 156 kts | 2° |
| 2026-05-03 23:39 | 46.36454 | -122.67694 | 4092 ft | 156 kts | 2° |
| 2026-05-03 23:39 | 46.37543 | -122.67676 | 4096 ft | 155 kts | 2° |
| 2026-05-03 23:40 | 46.38622 | -122.67651 | 4087 ft | 155 kts | 2° |
| 2026-05-03 23:40 | 46.39705 | -122.67623 | 4087 ft | 156 kts | 2° |
| 2026-05-03 23:40 | 46.40790 | -122.67606 | 4086 ft | 156 kts | 2° |
| 2026-05-03 23:40 | 46.41863 | -122.67593 | 4088 ft | 154 kts | 2° |
| 2026-05-03 23:41 | 46.42947 | -122.67565 | 4082 ft | 157 kts | 2° |
| 2026-05-03 23:41 | 46.44027 | -122.67537 | 4084 ft | 155 kts | 2° |
| 2026-05-03 23:41 | 46.45106 | -122.67494 | 4080 ft | 155 kts | 2° |
| 2026-05-03 23:41 | 46.46186 | -122.67436 | 4096 ft | 155 kts | 2° |
| 2026-05-03 23:42 | 46.47252 | -122.67393 | 4096 ft | 152 kts | 2° |
| 2026-05-03 23:42 | 46.48316 | -122.67353 | 4090 ft | 154 kts | 2° |
| 2026-05-03 23:42 | 46.49388 | -122.67307 | 4093 ft | 154 kts | 2° |
| 2026-05-03 23:42 | 46.50439 | -122.67261 | 4095 ft | 151 kts | 2° |
| 2026-05-03 23:43 | 46.51495 | -122.67212 | 4093 ft | 152 kts | 2° |
| 2026-05-03 23:43 | 46.52558 | -122.67162 | 4089 ft | 153 kts | 2° |
| 2026-05-03 23:43 | 46.53620 | -122.67115 | 4093 ft | 153 kts | 2° |
| 2026-05-03 23:43 | 46.54694 | -122.67075 | 4088 ft | 155 kts | 2° |
| 2026-05-03 23:44 | 46.55760 | -122.67020 | 4093 ft | 150 kts | 2° |
| 2026-05-03 23:44 | 46.56807 | -122.66981 | 4104 ft | 150 kts | 2° |
| 2026-05-03 23:44 | 46.57867 | -122.66925 | 4088 ft | 153 kts | 2° |
| 2026-05-03 23:44 | 46.58928 | -122.66863 | 4088 ft | 149 kts | 2° |
| 2026-05-03 23:45 | 46.59974 | -122.66813 | 4096 ft | 152 kts | 2° |
| 2026-05-03 23:45 | 46.61036 | -122.66760 | 4081 ft | 154 kts | 2° |
| 2026-05-03 23:45 | 46.62091 | -122.66705 | 4084 ft | 150 kts | 2° |
| 2026-05-03 23:45 | 46.63154 | -122.66665 | 4091 ft | 155 kts | 2° |
| 2026-05-03 23:46 | 46.64234 | -122.66624 | 4090 ft | 155 kts | 2° |
| 2026-05-03 23:46 | 46.65293 | -122.66587 | 4094 ft | 151 kts | 2° |
| 2026-05-03 23:46 | 46.66364 | -122.66551 | 4086 ft | 156 kts | 2° |
| 2026-05-03 23:46 | 46.67439 | -122.66498 | 4090 ft | 153 kts | 2° |
| 2026-05-03 23:47 | 46.68514 | -122.66440 | 4094 ft | 155 kts | 2° |
| 2026-05-03 23:47 | 46.69591 | -122.66380 | 4085 ft | 156 kts | 0° |
| 2026-05-03 23:47 | 46.70663 | -122.66328 | 4097 ft | 150 kts | 2° |
| 2026-05-03 23:47 | 46.71727 | -122.66296 | 4090 ft | 153 kts | 2° |
| 2026-05-03 23:48 | 46.72801 | -122.66273 | 4094 ft | 153 kts | 2° |
| 2026-05-03 23:48 | 46.73848 | -122.66238 | 4098 ft | 151 kts | 2° |
| 2026-05-03 23:48 | 46.74910 | -122.66206 | 4101 ft | 155 kts | 2° |
| 2026-05-03 23:48 | 46.75988 | -122.66165 | 4103 ft | 155 kts | 2° |
| 2026-05-03 23:49 | 46.77048 | -122.66120 | 4098 ft | 153 kts | 2° |
| 2026-05-03 23:49 | 46.78122 | -122.66088 | 4103 ft | 154 kts | 2° |
| 2026-05-03 23:49 | 46.79181 | -122.66057 | 4094 ft | 153 kts | 2° |
| 2026-05-03 23:49 | 46.80236 | -122.66041 | 4103 ft | 153 kts | 2° |
| 2026-05-03 23:50 | 46.81310 | -122.66011 | 4093 ft | 155 kts | 2° |
| 2026-05-03 23:50 | 46.82013 | -122.65990 | 4108 ft | 150 kts | 2° |
| 2026-05-03 23:50 | 46.83404 | -122.65949 | 4092 ft | 152 kts | 2° |
| 2026-05-03 23:50 | 46.84466 | -122.65907 | 4092 ft | 149 kts | 2° |
| 2026-05-03 23:51 | 46.85473 | -122.65879 | 4106 ft | 145 kts | 2° |
| 2026-05-03 23:51 | 46.86505 | -122.65839 | 4102 ft | 151 kts | 2° |
| 2026-05-03 23:51 | 46.87559 | -122.65801 | 4098 ft | 151 kts | 2° |
| 2026-05-03 23:51 | 46.88595 | -122.65753 | 4096 ft | 147 kts | 2° |
| 2026-05-03 23:52 | 46.89641 | -122.65716 | 4097 ft | 153 kts | 2° |
| 2026-05-03 23:52 | 46.90689 | -122.65684 | 4096 ft | 148 kts | 2° |
| 2026-05-03 23:52 | 46.91733 | -122.65656 | 4098 ft | 152 kts | 2° |
| 2026-05-03 23:52 | 46.92782 | -122.65626 | 4098 ft | 153 kts | 2° |
| 2026-05-03 23:53 | 46.93834 | -122.65599 | 4098 ft | 151 kts | 2° |
| 2026-05-03 23:53 | 46.94877 | -122.65568 | 4102 ft | 151 kts | 2° |
| 2026-05-03 23:53 | 46.95943 | -122.65533 | 4100 ft | 153 kts | 2° |
| 2026-05-03 23:53 | 46.97002 | -122.65504 | 4101 ft | 151 kts | 2° |
| 2026-05-03 23:54 | 46.98063 | -122.65469 | 4101 ft | 154 kts | 2° |
| 2026-05-03 23:54 | 46.99125 | -122.65439 | 4101 ft | 154 kts | 2° |
| 2026-05-03 23:54 | 47.00190 | -122.65409 | 4100 ft | 153 kts | 2° |
| 2026-05-03 23:54 | 47.01259 | -122.65371 | 4101 ft | 155 kts | 2° |
| 2026-05-03 23:55 | 47.02337 | -122.65333 | 4103 ft | 155 kts | 2° |
| 2026-05-03 23:55 | 47.03400 | -122.65302 | 4102 ft | 154 kts | 2° |
| 2026-05-03 23:55 | 47.04476 | -122.65278 | 4098 ft | 156 kts | 2° |
| 2026-05-03 23:55 | 47.05545 | -122.65255 | 4101 ft | 152 kts | 2° |
| 2026-05-03 23:56 | 47.06594 | -122.65227 | 4103 ft | 152 kts | 0° |
| 2026-05-03 23:56 | 47.07664 | -122.65294 | 4099 ft | 155 kts | 358° |
| 2026-05-03 23:56 | 47.08735 | -122.65363 | 4104 ft | 154 kts | 358° |
| 2026-05-03 23:56 | 47.09797 | -122.65438 | 4104 ft | 153 kts | 358° |
| 2026-05-03 23:57 | 47.10869 | -122.65512 | 4104 ft | 151 kts | 358° |
| 2026-05-03 23:57 | 47.11920 | -122.65601 | 4123 ft | 151 kts | 358° |
| 2026-05-03 23:57 | 47.12986 | -122.65692 | 4114 ft | 153 kts | 358° |
| 2026-05-03 23:57 | 47.14056 | -122.65774 | 4116 ft | 153 kts | 358° |
| 2026-05-03 23:58 | 47.15110 | -122.65860 | 4118 ft | 152 kts | 358° |
| 2026-05-03 23:58 | 47.16179 | -122.65936 | 4128 ft | 155 kts | 358° |
| 2026-05-03 23:58 | 47.17250 | -122.66012 | 4129 ft | 153 kts | 358° |
| 2026-05-03 23:58 | 47.18300 | -122.66093 | 4128 ft | 154 kts | 358° |
| 2026-05-03 23:59 | 47.19377 | -122.66165 | 4127 ft | 156 kts | 358° |
| 2026-05-03 23:59 | 47.20448 | -122.66238 | 4121 ft | 152 kts | 358° |
| 2026-05-03 23:59 | 47.21511 | -122.66309 | 4125 ft | 155 kts | 358° |
| 2026-05-03 23:59 | 47.22587 | -122.66382 | 4129 ft | 155 kts | 358° |
| 2026-05-04 00:00 | 47.23657 | -122.66452 | 4128 ft | 154 kts | 358° |
| 2026-05-04 00:00 | 47.24721 | -122.66522 | 4126 ft | 153 kts | 358° |
| 2026-05-04 00:00 | 47.25795 | -122.66591 | 4129 ft | 153 kts | 358° |
| 2026-05-04 00:00 | 47.26863 | -122.66657 | 4128 ft | 151 kts | 358° |
| 2026-05-04 00:01 | 47.27926 | -122.66727 | 4130 ft | 156 kts | 358° |
| 2026-05-04 00:01 | 47.29006 | -122.66805 | 4133 ft | 153 kts | 358° |
| 2026-05-04 00:01 | 47.30072 | -122.66879 | 4117 ft | 154 kts | 358° |
| 2026-05-04 00:01 | 47.31152 | -122.66956 | 4112 ft | 156 kts | 358° |
| 2026-05-04 00:02 | 47.32226 | -122.67032 | 4108 ft | 155 kts | 358° |
| 2026-05-04 00:02 | 47.33287 | -122.67092 | 4112 ft | 153 kts | 358° |
| 2026-05-04 00:02 | 47.34363 | -122.67155 | 4110 ft | 156 kts | 358° |
| 2026-05-04 00:02 | 47.35435 | -122.67221 | 4111 ft | 155 kts | 358° |
| 2026-05-04 00:03 | 47.36497 | -122.67287 | 4110 ft | 154 kts | 358° |
| 2026-05-04 00:03 | 47.37575 | -122.67366 | 4112 ft | 154 kts | 358° |
| 2026-05-04 00:03 | 47.38644 | -122.67435 | 4129 ft | 154 kts | 359° |
| 2026-05-04 00:03 | 47.39713 | -122.67470 | 4127 ft | 155 kts | 359° |
| 2026-05-04 00:04 | 47.40800 | -122.67510 | 4128 ft | 157 kts | 359° |
| 2026-05-04 00:04 | 47.41872 | -122.67538 | 4129 ft | 153 kts | 359° |
| 2026-05-04 00:04 | 47.42942 | -122.67577 | 4132 ft | 155 kts | 359° |
| 2026-05-04 00:04 | 47.44026 | -122.67620 | 4131 ft | 157 kts | 359° |
| 2026-05-04 00:05 | 47.45111 | -122.67657 | 4130 ft | 156 kts | 359° |
| 2026-05-04 00:05 | 47.46207 | -122.67690 | 4131 ft | 159 kts | 359° |
| 2026-05-04 00:05 | 47.47297 | -122.67730 | 4126 ft | 156 kts | 359° |
| 2026-05-04 00:05 | 47.48382 | -122.67772 | 4127 ft | 157 kts | 359° |
| 2026-05-04 00:06 | 47.49477 | -122.67814 | 4128 ft | 156 kts | 359° |
| 2026-05-04 00:06 | 47.50555 | -122.67848 | 4127 ft | 155 kts | 359° |
| 2026-05-04 00:06 | 47.51632 | -122.67882 | 4136 ft | 156 kts | 359° |
| 2026-05-04 00:06 | 47.52727 | -122.67922 | 4132 ft | 156 kts | 359° |
| 2026-05-04 00:07 | 47.53808 | -122.67956 | 4130 ft | 154 kts | 359° |
| 2026-05-04 00:07 | 47.54890 | -122.67990 | 4131 ft | 157 kts | 359° |
| 2026-05-04 00:07 | 47.55977 | -122.68032 | 4131 ft | 156 kts | 359° |
| 2026-05-04 00:07 | 47.57056 | -122.68051 | 4128 ft | 158 kts | 1° |
| 2026-05-04 00:08 | 47.58151 | -122.68025 | 4086 ft | 158 kts | 1° |
| 2026-05-04 00:08 | 47.59219 | -122.67996 | 4074 ft | 152 kts | 1° |
| 2026-05-04 00:08 | 47.60276 | -122.67967 | 4058 ft | 153 kts | 1° |
| 2026-05-04 00:08 | 47.61348 | -122.67940 | 4070 ft | 154 kts | 1° |
| 2026-05-04 00:09 | 47.62405 | -122.67926 | 4061 ft | 150 kts | 1° |
| 2026-05-04 00:09 | 47.63456 | -122.67907 | 4061 ft | 153 kts | 1° |
| 2026-05-04 00:09 | 47.64533 | -122.67888 | 4068 ft | 153 kts | 1° |
| 2026-05-04 00:09 | 47.65598 | -122.67869 | 4063 ft | 151 kts | 1° |
| 2026-05-04 00:10 | 47.66301 | -122.67850 | 4063 ft | 154 kts | 1° |
| 2026-05-04 00:10 | 47.67377 | -122.67820 | 4061 ft | 153 kts | 1° |
| 2026-05-04 00:10 | 47.68427 | -122.67788 | 4060 ft | 149 kts | 1° |
| 2026-05-04 00:10 | 47.69473 | -122.67756 | 4063 ft | 152 kts | 1° |
| 2026-05-04 00:11 | 47.70531 | -122.67727 | 4053 ft | 152 kts | 1° |
| 2026-05-04 00:11 | 47.71576 | -122.67704 | 4056 ft | 150 kts | 1° |
| 2026-05-04 00:11 | 47.72632 | -122.67672 | 4048 ft | 154 kts | 1° |
| 2026-05-04 00:11 | 47.73696 | -122.67637 | 4048 ft | 151 kts | 1° |
| 2026-05-04 00:12 | 47.74754 | -122.67606 | 4046 ft | 153 kts | 1° |
| 2026-05-04 00:12 | 47.75824 | -122.67571 | 4041 ft | 155 kts | 1° |
| 2026-05-04 00:12 | 47.76892 | -122.67545 | 4039 ft | 150 kts | 1° |
| 2026-05-04 00:12 | 47.77944 | -122.67519 | 4039 ft | 153 kts | 1° |
| 2026-05-04 00:13 | 47.79012 | -122.67497 | 4043 ft | 154 kts | 1° |
| 2026-05-04 00:13 | 47.80074 | -122.67477 | 4037 ft | 150 kts | 1° |
| 2026-05-04 00:13 | 47.81128 | -122.67451 | 4042 ft | 154 kts | 1° |
| 2026-05-04 00:13 | 47.82196 | -122.67418 | 4051 ft | 153 kts | 1° |
| 2026-05-04 00:14 | 47.83257 | -122.67386 | 4029 ft | 153 kts | 1° |
| 2026-05-04 00:14 | 47.84321 | -122.67351 | 4030 ft | 154 kts | 1° |
| 2026-05-04 00:14 | 47.85381 | -122.67321 | 4034 ft | 152 kts | 1° |
| 2026-05-04 00:14 | 47.86433 | -122.67297 | 4034 ft | 152 kts | 1° |
| 2026-05-04 00:15 | 47.87499 | -122.67272 | 4033 ft | 155 kts | 1° |
| 2026-05-04 00:15 | 47.88569 | -122.67242 | 4032 ft | 151 kts | 1° |
| 2026-05-04 00:15 | 47.89621 | -122.67222 | 4034 ft | 153 kts | 1° |
| 2026-05-04 00:15 | 47.90692 | -122.67196 | 4039 ft | 152 kts | 1° |
| 2026-05-04 00:16 | 47.91744 | -122.67165 | 4042 ft | 148 kts | 1° |
| 2026-05-04 00:16 | 47.92791 | -122.67131 | 4023 ft | 152 kts | 1° |
| 2026-05-04 00:16 | 47.93863 | -122.67086 | 4022 ft | 154 kts | 1° |
| 2026-05-04 00:16 | 47.94924 | -122.67045 | 4030 ft | 153 kts | 1° |
| 2026-05-04 00:17 | 47.95993 | -122.67004 | 4036 ft | 154 kts | 1° |
| 2026-05-04 00:17 | 47.97068 | -122.66948 | 4038 ft | 153 kts | 1° |
| 2026-05-04 00:17 | 47.98120 | -122.66876 | 4041 ft | 152 kts | 1° |
| 2026-05-04 00:17 | 47.99190 | -122.66814 | 4045 ft | 155 kts | 1° |
| 2026-05-04 00:18 | 48.00260 | -122.66741 | 4047 ft | 152 kts | 1° |
| 2026-05-04 00:18 | 48.01300 | -122.66676 | 4060 ft | 152 kts | 1° |
| 2026-05-04 00:18 | 48.02381 | -122.66618 | 4060 ft | 154 kts | 1° |
| 2026-05-04 00:18 | 48.03446 | -122.66557 | 4064 ft | 152 kts | 1° |
| 2026-05-04 00:19 | 48.04495 | -122.66501 | 4067 ft | 154 kts | 1° |
| 2026-05-04 00:19 | 48.05573 | -122.66437 | 4069 ft | 155 kts | 1° |
| 2026-05-04 00:19 | 48.06625 | -122.66363 | 4074 ft | 151 kts | 1° |
| 2026-05-04 00:19 | 48.07684 | -122.66294 | 4077 ft | 153 kts | 1° |
| 2026-05-04 00:20 | 48.08748 | -122.66225 | 4084 ft | 152 kts | 1° |
| 2026-05-04 00:20 | 48.09806 | -122.66160 | 4087 ft | 152 kts | 1° |
| 2026-05-04 00:20 | 48.10873 | -122.66107 | 4096 ft | 155 kts | 1° |
| 2026-05-04 00:20 | 48.11948 | -122.66038 | 4088 ft | 153 kts | 1° |
| 2026-05-04 00:21 | 48.13017 | -122.65974 | 4093 ft | 154 kts | 1° |
| 2026-05-04 00:21 | 48.14093 | -122.65911 | 4092 ft | 154 kts | 1° |
| 2026-05-04 00:21 | 48.15151 | -122.65840 | 4093 ft | 151 kts | 1° |
| 2026-05-04 00:21 | 48.16214 | -122.65780 | 4091 ft | 154 kts | 1° |
| 2026-05-04 00:22 | 48.17282 | -122.65717 | 4098 ft | 154 kts | 1° |
| 2026-05-04 00:22 | 48.18344 | -122.65667 | 4092 ft | 154 kts | 1° |
| 2026-05-04 00:22 | 48.19431 | -122.65622 | 4093 ft | 157 kts | 1° |
| 2026-05-04 00:22 | 48.20531 | -122.65577 | 4087 ft | 159 kts | 1° |
| 2026-05-04 00:23 | 48.21631 | -122.65530 | 4092 ft | 158 kts | 1° |
| 2026-05-04 00:23 | 48.22732 | -122.65482 | 4091 ft | 158 kts | 1° |
| 2026-05-04 00:23 | 48.23834 | -122.65435 | 4089 ft | 158 kts | 1° |
| 2026-05-04 00:23 | 48.24935 | -122.65387 | 4089 ft | 158 kts | 1° |
| 2026-05-04 00:24 | 48.26039 | -122.65343 | 4091 ft | 158 kts | 1° |
| 2026-05-04 00:24 | 48.27136 | -122.65298 | 4091 ft | 158 kts | 1° |
| 2026-05-04 00:24 | 48.28131 | -122.65258 | 4090 ft | 158 kts | 1° |
| 2026-05-04 00:24 | 48.29239 | -122.65214 | 4090 ft | 152 kts | 1° |
| 2026-05-04 00:25 | 48.30206 | -122.65193 | 3644 ft | 134 kts | 0° |
| 2026-05-04 00:25 | 48.31147 | -122.65204 | 2736 ft | 134 kts | 359° |
| 2026-05-04 00:25 | 48.32043 | -122.65237 | 2053 ft | 124 kts | 358° |
| 2026-05-04 00:25 | 48.32858 | -122.65350 | 1471 ft | 111 kts | 349° |
| 2026-05-04 00:26 | 48.33492 | -122.65630 | 850 ft | 83 kts | 341° |
| 2026-05-04 00:26 | 48.33944 | -122.65876 | 335 ft | 55 kts | 329° |
| 2026-05-04 00:26 | 48.34180 | -122.66089 | 60 ft | 29 kts | 326° |
| 2026-05-04 00:26 | 48.34298 | -122.66209 | 27 ft | 15 kts | 328° |
| 2026-05-04 00:27 | 48.34375 | -122.66287 | 21 ft | 17 kts | 326° |
| 2026-05-04 00:27 | 48.34470 | -122.66405 | 21 ft | 17 kts | 296° |
| 2026-05-04 00:27 | 48.34461 | -122.66551 | 21 ft | 12 kts | 251° |
| 2026-05-04 00:27 | 48.34437 | -122.66654 | 21 ft | 9 kts | 220° |
| 2026-05-04 00:28 | 48.34423 | -122.66658 | 21 ft | 0 kts | 144° |